Time;durP1;ratioP1;P1;durP2;ratioP2;P2;SDS_P1;SDS_P2;PMS_P1;PMS_P2;Temp;Humidity;BMP_temperature;BMP_pressure;BME280_temperature;BME280_humidity;BME280_pressure;Samples;Min_cycle;Max_cycle;Signal;HPM_P1;HPM_P2
2021/04/05 00:01:20;;;;;;;19.70;9.75;;;6.30;83.00;;;;;;5051587;28;20033;-69
2021/04/05 00:03:46;;;;;;;29.27;9.82;;;6.30;83.20;;;;;;5051975;28;20029;-69
2021/04/05 00:06:12;;;;;;;23.90;10.48;;;6.30;83.00;;;;;;5053772;28;20128;-69
2021/04/05 00:08:38;;;;;;;23.23;9.68;;;6.30;83.20;;;;;;5051905;28;20102;-70
2021/04/05 00:11:05;;;;;;;20.48;9.85;;;6.20;83.30;;;;;;5051519;28;20098;-69
2021/04/05 00:13:35;;;;;;;19.40;9.45;;;6.20;83.30;;;;;;5049028;28;20025;-69
2021/04/05 00:16:01;;;;;;;21.25;10.40;;;6.30;83.30;;;;;;5054590;28;20048;-69
2021/04/05 00:18:27;;;;;;;25.08;11.32;;;6.30;83.20;;;;;;5051344;28;20498;-69
2021/04/05 00:21:01;;;;;;;20.42;10.10;;;6.40;82.90;;;;;;5051658;28;20029;-69
2021/04/05 00:23:27;;;;;;;26.70;11.25;;;6.30;82.80;;;;;;5050396;28;20037;-69
2021/04/05 00:25:52;;;;;;;23.90;10.63;;;6.30;82.90;;;;;;5051646;28;20525;-69
2021/04/05 00:28:18;;;;;;;23.48;10.90;;;6.30;82.90;;;;;;5050387;28;20043;-69
2021/04/05 00:30:44;;;;;;;24.17;11.82;;;6.30;82.80;;;;;;5050520;28;20043;-69
2021/04/05 00:33:10;;;;;;;23.10;11.68;;;6.30;82.80;;;;;;5050401;28;20029;-69
2021/04/05 00:35:38;;;;;;;27.02;11.07;;;6.30;82.70;;;;;;5053066;28;20029;-69
2021/04/05 00:38:07;;;;;;;25.17;12.40;;;6.40;82.80;;;;;;5050113;28;20079;-69
2021/04/05 00:40:55;;;;;;;24.77;11.45;;;6.40;82.30;;;;;;5050739;28;20501;-69
2021/04/05 00:43:21;;;;;;;26.80;12.48;;;6.40;82.40;;;;;;5051953;28;20033;-68
2021/04/05 00:45:48;;;;;;;32.38;13.40;;;6.50;82.30;;;;;;5049738;28;20182;-69
2021/04/05 00:48:16;;;;;;;23.38;12.65;;;6.40;82.20;;;;;;5050697;28;20044;-69
2021/04/05 00:50:54;;;;;;;28.10;12.02;;;6.40;82.40;;;;;;5051489;28;20028;-69
2021/04/05 00:53:29;;;;;;;27.13;13.25;;;6.40;82.60;;;;;;5051577;28;20051;-68
2021/04/05 00:55:55;;;;;;;23.02;12.57;;;6.40;82.40;;;;;;5049817;28;20029;-69
2021/04/05 00:58:21;;;;;;;27.50;13.50;;;6.40;82.50;;;;;;5051268;28;20505;-69
2021/04/05 01:00:53;;;;;;;27.35;14.23;;;6.40;82.40;;;;;;5049613;28;20057;-69
2021/04/05 01:03:25;;;;;;;26.90;13.95;;;6.40;82.20;;;;;;5031653;28;20479;-69
2021/04/05 01:06:01;;;;;;;25.90;14.25;;;6.40;82.20;;;;;;5049298;28;20083;-69
2021/04/05 01:08:27;;;;;;;27.80;14.13;;;6.40;82.30;;;;;;5049557;28;20029;-69
2021/04/05 01:10:52;;;;;;;27.77;13.65;;;6.40;82.30;;;;;;5053956;28;20107;-69
2021/04/05 01:13:19;;;;;;;30.23;15.02;;;6.40;82.30;;;;;;5051338;28;20518;-69
2021/04/05 01:15:46;;;;;;;25.20;14.65;;;6.50;82.10;;;;;;5049153;28;20033;-69
2021/04/05 01:18:14;;;;;;;26.98;13.60;;;6.50;81.90;;;;;;5048181;28;20443;-69
2021/04/05 01:20:40;;;;;;;24.85;14.13;;;6.50;82.00;;;;;;5048421;28;20174;-69
2021/04/05 01:23:06;;;;;;;27.50;14.27;;;6.50;82.10;;;;;;5050596;28;20478;-69
2021/04/05 01:25:31;;;;;;;23.73;14.18;;;6.50;82.10;;;;;;5049531;28;20039;-69
2021/04/05 01:27:58;;;;;;;30.13;14.82;;;6.50;82.00;;;;;;5048358;28;20040;-69
2021/04/05 01:30:36;;;;;;;29.05;13.52;;;6.60;81.90;;;;;;5052956;28;20493;-69
2021/04/05 01:33:09;;;;;;;26.02;14.10;;;6.60;82.00;;;;;;5047167;28;20082;-69
2021/04/05 01:36:00;;;;;;;28.73;14.07;;;6.60;81.80;;;;;;5048160;28;20052;-69
2021/04/05 01:38:30;;;;;;;24.63;14.20;;;6.60;81.80;;;;;;5050402;28;20517;-69
2021/04/05 01:40:59;;;;;;;29.75;14.73;;;6.60;81.80;;;;;;5048293;28;20033;-69
2021/04/05 01:43:25;;;;;;;27.92;13.90;;;6.60;82.00;;;;;;5031942;28;20116;-69
2021/04/05 01:45:56;;;;;;;27.27;13.63;;;6.70;82.00;;;;;;5049012;28;20119;-69
2021/04/05 01:48:24;;;;;;;28.47;14.47;;;6.60;82.10;;;;;;5048734;28;20025;-69
2021/04/05 01:50:50;;;;;;;33.88;13.95;;;6.70;82.20;;;;;;5043229;28;20025;-69
2021/04/05 01:53:19;;;;;;;25.98;13.43;;;6.70;82.50;;;;;;5051313;28;20052;-68
2021/04/05 01:55:46;;;;;;;23.23;12.70;;;6.80;82.10;;;;;;5047808;28;20035;-69
2021/04/05 01:58:15;;;;;;;35.05;14.25;;;6.80;82.00;;;;;;5048655;28;20021;-69
2021/04/05 02:00:40;;;;;;;32.55;13.85;;;6.70;82.10;;;;;;5049465;28;20040;-68
2021/04/05 02:03:10;;;;;;;28.73;14.13;;;6.80;82.20;;;;;;5048867;28;20496;-69
2021/04/05 02:05:38;;;;;;;23.40;13.43;;;6.80;82.40;;;;;;5053762;28;20493;-69
2021/04/05 02:08:06;;;;;;;30.33;13.00;;;6.80;82.30;;;;;;5047634;28;20442;-69
2021/04/05 02:10:33;;;;;;;25.27;13.73;;;6.70;82.40;;;;;;5050097;28;20033;-69
2021/04/05 02:12:59;;;;;;;26.90;13.68;;;6.80;82.50;;;;;;5049595;28;20494;-69
2021/04/05 02:15:25;;;;;;;24.67;12.30;;;6.80;82.80;;;;;;5049847;28;20104;-69
2021/04/05 02:17:51;;;;;;;24.25;13.95;;;6.80;82.80;;;;;;5048209;28;20104;-69
2021/04/05 02:20:18;;;;;;;29.85;13.57;;;6.70;83.00;;;;;;5049845;28;20028;-69
2021/04/05 02:22:51;;;;;;;26.17;13.45;;;6.70;83.40;;;;;;5047390;28;20098;-69
2021/04/05 02:25:19;;;;;;;25.65;12.93;;;6.70;83.30;;;;;;5048349;28;20056;-69
2021/04/05 02:27:49;;;;;;;26.40;12.55;;;6.80;83.60;;;;;;5049197;28;20526;-69
2021/04/05 02:30:24;;;;;;;30.80;12.93;;;6.80;83.40;;;;;;5049323;28;20037;-69
2021/04/05 02:33:08;;;;;;;29.77;12.73;;;6.80;83.40;;;;;;5047708;28;20025;-69
2021/04/05 02:35:34;;;;;;;27.73;12.90;;;6.80;83.40;;;;;;5047323;28;20128;-69
2021/04/05 02:38:02;;;;;;;24.50;12.77;;;6.80;83.70;;;;;;5048426;28;20650;-69
2021/04/05 02:40:29;;;;;;;25.55;13.45;;;6.70;83.80;;;;;;5030731;28;20090;-68
2021/04/05 02:42:57;;;;;;;29.25;12.30;;;6.80;84.40;;;;;;5048320;28;20059;-69
2021/04/05 02:45:24;;;;;;;33.05;13.63;;;6.70;84.50;;;;;;5049283;28;20033;-69
2021/04/05 02:47:54;;;;;;;33.15;13.90;;;6.80;84.80;;;;;;5048284;28;20111;-69
2021/04/05 02:50:22;;;;;;;28.83;12.52;;;6.80;85.00;;;;;;5048847;28;20075;-69
2021/04/05 02:52:49;;;;;;;28.60;12.32;;;6.70;85.00;;;;;;5048188;28;20021;-69
2021/04/05 02:55:15;;;;;;;29.35;12.60;;;6.70;85.00;;;;;;5048127;28;20036;-69
2021/04/05 02:57:43;;;;;;;26.27;11.75;;;6.70;85.30;;;;;;5047630;28;20031;-68
2021/04/05 03:00:10;;;;;;;26.67;12.20;;;6.80;85.50;;;;;;5052236;28;20338;-70
2021/04/05 03:02:38;;;;;;;23.08;12.15;;;6.80;85.20;;;;;;5048720;28;20033;-70
2021/04/05 03:05:07;;;;;;;25.35;11.98;;;6.80;84.90;;;;;;5047837;28;20033;-70
2021/04/05 03:07:34;;;;;;;25.63;12.05;;;6.80;85.20;;;;;;5045745;28;20087;-69
2021/04/05 03:10:01;;;;;;;30.45;12.60;;;6.80;85.40;;;;;;5030051;28;20486;-70
2021/04/05 03:12:28;;;;;;;26.25;12.95;;;6.80;85.40;;;;;;5048747;28;20033;-70
2021/04/05 03:14:55;;;;;;;28.25;12.05;;;6.80;85.70;;;;;;5049048;28;20198;-70
2021/04/05 03:17:22;;;;;;;30.70;11.95;;;6.80;85.80;;;;;;5045686;28;20094;-70
2021/04/05 03:19:49;;;;;;;30.40;11.77;;;6.80;86.30;;;;;;5048035;28;20134;-69
2021/04/05 03:22:17;;;;;;;48.35;14.57;;;6.70;86.40;;;;;;5048217;28;20056;-69
2021/04/05 03:24:43;;;;;;;33.38;12.35;;;6.80;87.30;;;;;;5046777;28;20033;-70
2021/04/05 03:27:10;;;;;;;31.50;14.10;;;6.80;88.10;;;;;;5048437;28;20033;-70
2021/04/05 03:29:38;;;;;;;28.83;12.57;;;6.70;88.60;;;;;;5047799;28;20028;-70
2021/04/05 03:32:06;;;;;;;27.77;12.85;;;6.70;89.20;;;;;;5046777;28;20040;-70
2021/04/05 03:34:35;;;;;;;33.50;13.38;;;6.70;90.30;;;;;;5045653;28;20017;-69
2021/04/05 03:37:07;;;;;;;34.55;14.15;;;6.70;90.50;;;;;;5048795;28;20511;-69
2021/04/05 03:39:34;;;;;;;30.25;13.20;;;6.60;90.90;;;;;;5049706;28;20025;-70
2021/04/05 03:42:05;;;;;;;30.50;13.90;;;6.60;91.10;;;;;;5048253;28;20510;-70
2021/04/05 03:44:44;;;;;;;27.00;13.63;;;6.50;91.30;;;;;;5047385;28;20031;-70
2021/04/05 03:47:21;;;;;;;27.67;13.05;;;6.40;91.40;;;;;;5046616;28;20029;-70
2021/04/05 03:49:53;;;;;;;33.33;13.65;;;6.50;91.70;;;;;;5046216;28;20032;-70
2021/04/05 03:52:34;;;;;;;27.00;13.35;;;6.40;91.90;;;;;;5047354;28;20052;-69
2021/04/05 03:55:03;;;;;;;;;;;6.50;92.20;;;;;;5051254;28;20482;-70
2021/04/05 03:57:40;;;;;;;28.80;13.13;;;6.40;92.30;;;;;;5048465;28;19916;-69
2021/04/05 04:00:13;;;;;;;28.40;13.00;;;6.40;92.50;;;;;;5047456;28;20033;-69
2021/04/05 04:02:46;;;;;;;27.65;13.63;;;6.40;92.70;;;;;;5048024;28;20344;-70
2021/04/05 04:05:24;;;;;;;34.42;13.98;;;6.40;93.00;;;;;;5046192;28;20482;-69
2021/04/05 04:10:19;;;;;;;28.85;13.85;;;6.40;93.40;;;;;;5047319;28;20035;-69
2021/04/05 04:12:48;;;;;;;31.55;14.00;;;6.40;93.70;;;;;;5049021;28;20037;-70
2021/04/05 04:15:15;;;;;;;36.63;14.43;;;6.30;93.70;;;;;;5047283;28;20485;-70
2021/04/05 04:17:43;;;;;;;26.92;13.45;;;6.30;93.90;;;;;;5048321;28;20154;-70
2021/04/05 04:20:14;;;;;;;19.23;9.40;;;6.30;94.10;;;;;;5046044;28;20087;-70
2021/04/05 04:22:40;;;;;;;7.03;3.38;;;6.30;93.70;;;;;;5046188;28;20356;-70
2021/04/05 04:25:07;;;;;;;6.88;2.70;;;6.20;92.90;;;;;;5046659;28;20486;-70
2021/04/05 04:27:33;;;;;;;3.97;1.52;;;6.10;92.70;;;;;;5046547;28;20029;-70
2021/04/05 04:29:59;;;;;;;2.70;1.00;;;5.90;92.70;;;;;;5046782;28;20025;-70
2021/04/05 04:32:25;;;;;;;5.70;1.27;;;5.80;93.00;;;;;;5047390;28;20517;-72
2021/04/05 04:34:52;;;;;;;1.38;0.60;;;5.90;94.00;;;;;;5043667;28;20094;-70
2021/04/05 04:37:18;;;;;;;2.92;0.50;;;5.80;92.70;;;;;;5030387;28;20033;-70
2021/04/05 04:39:44;;;;;;;1.83;0.50;;;5.60;92.30;;;;;;5046865;28;20350;-70
2021/04/05 04:42:11;;;;;;;4.93;0.40;;;5.50;92.60;;;;;;5049507;28;20033;-70
2021/04/05 04:44:38;;;;;;;2.22;0.45;;;5.40;93.40;;;;;;5050680;28;20124;-70
2021/04/05 04:47:04;;;;;;;3.72;0.73;;;5.40;93.30;;;;;;5051279;28;20036;-70
2021/04/05 04:49:30;;;;;;;2.78;0.75;;;5.30;93.20;;;;;;5050114;28;20029;-70
2021/04/05 04:51:56;;;;;;;3.38;0.45;;;5.20;93.40;;;;;;5050241;28;20066;-70
2021/04/05 04:54:22;;;;;;;3.33;0.70;;;5.10;93.50;;;;;;5051169;28;20025;-70
2021/04/05 04:56:51;;;;;;;3.30;0.60;;;5.10;93.70;;;;;;5050524;28;20104;-70
2021/04/05 04:59:20;;;;;;;2.72;0.60;;;5.10;93.50;;;;;;5047651;28;20033;-71
2021/04/05 05:01:47;;;;;;;3.45;0.80;;;5.10;93.70;;;;;;5047897;28;20052;-71
2021/04/05 05:04:23;;;;;;;1.83;0.60;;;5.10;93.80;;;;;;5050487;28;20370;-70
2021/04/05 05:06:52;;;;;;;3.42;1.20;;;5.10;93.70;;;;;;5050546;28;20502;-70
2021/04/05 05:09:19;;;;;;;3.60;0.95;;;5.10;93.90;;;;;;5051247;28;20037;-71
2021/04/05 05:11:46;;;;;;;4.57;0.90;;;5.10;93.90;;;;;;5033294;28;20397;-71
2021/04/05 05:14:13;;;;;;;3.17;0.80;;;5.10;94.20;;;;;;5048906;28;20108;-70
2021/04/05 05:16:40;;;;;;;5.57;1.27;;;5.10;93.90;;;;;;5050815;28;20478;-70
2021/04/05 05:19:07;;;;;;;3.00;0.90;;;5.10;94.00;;;;;;5064985;22;20037;-68
2021/04/05 05:21:45;;;;;;;7.13;1.02;;;5.10;94.30;;;;;;5040386;28;20021;-68
2021/04/05 05:24:20;;;;;;;6.10;1.10;;;5.10;94.00;;;;;;5037959;28;20519;-68
2021/04/05 05:26:47;;;;;;;5.32;1.00;;;5.10;93.60;;;;;;5022360;28;20026;-68
2021/04/05 05:29:14;;;;;;;9.85;1.45;;;5.00;93.60;;;;;;5040186;28;20040;-68
2021/04/05 05:31:44;;;;;;;4.05;1.15;;;5.00;93.80;;;;;;5038969;28;20025;-68
2021/04/05 05:34:10;;;;;;;7.18;1.40;;;5.00;93.30;;;;;;5040317;28;20021;-69
2021/04/05 05:36:37;;;;;;;8.88;1.73;;;4.90;93.50;;;;;;5037695;28;20022;-69
2021/04/05 05:39:04;;;;;;;9.88;1.10;;;4.90;92.90;;;;;;5039781;28;20044;-68
2021/04/05 05:42:04;;;;;;;7.40;1.55;;;4.90;92.90;;;;;;5039673;28;20103;-68
2021/04/05 05:44:55;;;;;;;11.23;1.42;;;4.90;93.40;;;;;;5041999;28;20413;-68
2021/04/05 05:47:47;;;;;;;7.85;2.05;;;4.80;93.30;;;;;;5020257;28;20041;-69
2021/04/05 05:50:37;;;;;;;7.10;2.55;;;4.80;93.90;;;;;;5041892;28;20021;-69
2021/04/05 05:53:20;;;;;;;5.30;1.10;;;4.80;92.90;;;;;;5040072;28;20479;-69
2021/04/05 05:56:05;;;;;;;10.43;1.55;;;4.70;93.60;;;;;;5039470;28;20052;-68
2021/04/05 05:58:49;;;;;;;6.85;1.33;;;4.60;93.30;;;;;;5041119;28;20402;-68
2021/04/05 06:01:34;;;;;;;10.98;1.23;;;4.60;93.10;;;;;;5037628;28;20086;-68
2021/04/05 06:04:18;;;;;;;10.77;2.35;;;4.60;92.70;;;;;;5037771;28;20116;-69
2021/04/05 06:07:03;;;;;;;6.60;1.50;;;4.50;93.10;;;;;;5038050;28;20423;-69
2021/04/05 06:09:49;;;;;;;7.20;1.15;;;4.40;93.10;;;;;;5037889;28;20049;-68
2021/04/05 06:12:35;;;;;;;11.25;1.45;;;4.40;92.70;;;;;;5036977;28;20037;-68
2021/04/05 06:15:18;;;;;;;9.82;1.30;;;4.20;92.70;;;;;;5022378;28;20111;-70
2021/04/05 06:18:12;;;;;;;12.45;2.50;;;4.20;93.30;;;;;;5037165;28;20025;-69
2021/04/05 06:20:45;;;;;;;10.98;1.60;;;4.30;93.20;;;;;;5038353;28;20635;-70
2021/04/05 06:23:36;;;;;;;7.63;1.38;;;4.30;93.60;;;;;;5038460;28;20341;-70
2021/04/05 06:26:13;;;;;;;10.27;1.70;;;4.20;94.10;;;;;;5035855;28;20037;-68
2021/04/05 06:29:18;;;;;;;8.30;1.38;;;4.20;93.90;;;;;;5035906;28;20478;-69
2021/04/05 06:32:14;;;;;;;6.47;1.33;;;4.20;93.80;;;;;;5040518;28;20478;-70
2021/04/05 06:35:17;;;;;;;9.10;1.45;;;4.20;93.10;;;;;;5032189;28;20029;-70
2021/04/05 06:37:52;;;;;;;7.25;1.17;;;4.20;92.70;;;;;;5017643;28;20025;-70
2021/04/05 06:40:21;;;;;;;6.22;1.75;;;4.10;93.30;;;;;;5040183;28;20082;-69
2021/04/05 06:43:05;;;;;;;8.15;1.35;;;4.20;92.30;;;;;;5038275;28;20057;-68
2021/04/05 06:45:57;;;;;;;12.10;1.48;;;4.10;92.90;;;;;;5038615;28;20037;-69
2021/04/05 06:49:13;;;;;;;9.13;1.30;;;4.00;92.70;;;;;;5020618;28;20040;-69
2021/04/05 06:52:09;;;;;;;7.97;1.25;;;3.90;92.20;;;;;;5018878;28;20032;-68
2021/04/05 06:55:13;;;;;;;10.05;1.27;;;3.80;93.10;;;;;;5037608;28;20057;-69
2021/04/05 06:58:03;;;;;;;9.50;1.20;;;3.80;93.70;;;;;;5033664;28;20029;-70
2021/04/05 07:00:54;;;;;;;4.73;1.00;;;3.70;93.50;;;;;;5037333;28;20029;-70
2021/04/05 07:03:59;;;;;;;4.60;0.85;;;3.70;94.50;;;;;;5039044;28;20641;-70
2021/04/05 07:07:02;;;;;;;5.32;1.40;;;3.80;94.10;;;;;;5036307;28;20428;-72
2021/04/05 07:09:47;;;;;;;11.48;1.35;;;3.80;93.60;;;;;;5038184;28;20036;-71
2021/04/05 07:12:18;;;;;;;5.70;0.90;;;3.80;94.40;;;;;;5037715;28;20070;-70
2021/04/05 07:15:23;;;;;;;4.82;1.00;;;3.80;93.60;;;;;;5035429;28;20537;-72
2021/04/05 07:18:31;;;;;;;4.95;1.05;;;3.80;94.00;;;;;;5035985;28;20132;-68
2021/04/05 07:21:14;;;;;;;9.05;1.23;;;3.80;94.10;;;;;;5032414;28;20183;-70
2021/04/05 07:24:06;;;;;;;7.70;1.20;;;3.80;93.60;;;;;;5034463;28;20490;-71
2021/04/05 07:27:06;;;;;;;10.10;1.30;;;3.80;94.20;;;;;;5034483;28;20811;-68
2021/04/05 07:29:47;;;;;;;13.60;2.13;;;3.90;94.40;;;;;;5018143;28;20116;-69
2021/04/05 07:32:46;;;;;;;9.63;1.63;;;3.90;93.40;;;;;;5038106;28;20040;-68
2021/04/05 07:35:20;;;;;;;13.43;1.40;;;3.80;94.10;;;;;;5037848;28;20096;-71
2021/04/05 07:38:02;;;;;;;12.98;2.03;;;3.80;94.30;;;;;;5036206;28;20037;-71
2021/04/05 07:40:47;;;;;;;;;;;3.90;93.20;;;;;;5038215;28;20029;-70
2021/04/05 07:43:16;;;;;;;12.77;1.20;;;3.90;93.80;;;;;;5020245;28;19913;-70
2021/04/05 07:46:16;;;;;;;14.43;3.08;;;4.00;92.60;;;;;;5017418;28;20625;-71
2021/04/05 07:48:51;;;;;;;5.60;0.98;;;3.90;94.10;;;;;;5036725;28;20079;-70
2021/04/05 07:51:35;;;;;;;8.48;1.60;;;3.90;93.70;;;;;;5038149;28;20425;-71
2021/04/05 07:54:07;;;;;;;7.85;1.60;;;3.90;93.40;;;;;;5037015;28;20360;-70
2021/04/05 07:56:55;;;;;;;13.20;1.60;;;4.00;94.90;;;;;;5036885;28;20445;-70
2021/04/05 07:59:51;;;;;;;11.05;1.75;;;4.10;94.30;;;;;;4999531;28;20041;-70
2021/04/05 08:02:26;;;;;;;9.77;1.73;;;4.20;92.20;;;;;;5037157;28;20389;-70
2021/04/05 08:04:54;;;;;;;5.00;1.50;;;4.10;93.30;;;;;;5034671;28;20082;-68
2021/04/05 08:07:35;;;;;;;6.07;1.17;;;4.10;92.70;;;;;;5038854;28;20027;-70
2021/04/05 08:10:31;;;;;;;11.25;1.73;;;4.20;91.80;;;;;;5039528;28;20164;-69
2021/04/05 08:13:38;;;;;;;5.70;0.90;;;4.30;92.10;;;;;;5037081;28;20116;-69
2021/04/05 08:16:40;;;;;;;2.97;0.57;;;4.30;87.10;;;;;;5018403;28;20037;-70
2021/04/05 08:19:27;;;;;;;2.03;0.30;;;4.10;87.30;;;;;;5038161;28;20033;-70
2021/04/05 08:22:01;;;;;;;1.38;0.73;;;4.00;87.80;;;;;;5039975;28;20045;-69
2021/04/05 08:24:38;;;;;;;0.95;0.40;;;3.90;88.20;;;;;;5036364;28;20057;-70
2021/04/05 08:27:22;;;;;;;0.80;0.20;;;3.80;90.10;;;;;;5037151;28;20486;-69
2021/04/05 08:30:03;;;;;;;1.40;0.25;;;3.70;89.40;;;;;;5021153;28;20040;-69
2021/04/05 08:32:41;;;;;;;;;;;3.70;90.20;;;;;;5036272;28;20387;-68
2021/04/05 08:35:28;;;;;;;2.30;0.30;;;3.60;91.20;;;;;;5028657;28;20354;-68
2021/04/05 08:38:13;;;;;;;0.73;0.20;;;3.60;91.10;;;;;;5031152;28;20756;-68
2021/04/05 08:40:47;;;;;;;2.70;0.57;;;3.60;90.60;;;;;;5037127;28;20044;-68
2021/04/05 08:43:40;;;;;;;1.75;0.25;;;3.60;91.50;;;;;;5037114;28;20025;-69
2021/04/05 08:46:13;;;;;;;1.75;0.25;;;3.60;90.50;;;;;;5035114;28;20033;-69
2021/04/05 08:48:41;;;;;;;2.75;0.32;;;3.50;91.60;;;;;;5035801;28;20059;-69
2021/04/05 08:51:18;;;;;;;2.72;0.40;;;3.50;91.60;;;;;;5036318;28;20024;-69
2021/04/05 08:53:53;;;;;;;1.02;0.50;;;3.50;92.60;;;;;;5034513;28;20036;-71
2021/04/05 08:56:20;;;;;;;4.95;0.50;;;3.50;91.70;;;;;;5020230;28;20092;-69
2021/04/05 08:58:54;;;;;;;5.18;1.20;;;3.50;91.70;;;;;;5036256;28;20511;-69
2021/04/05 09:01:27;;;;;;;2.88;0.47;;;3.30;90.20;;;;;;5020374;28;20563;-69
2021/04/05 09:03:54;;;;;;;4.63;0.80;;;3.20;91.30;;;;;;5035591;28;20658;-69
2021/04/05 09:06:29;;;;;;;8.55;1.05;;;3.10;90.60;;;;;;5033184;28;20100;-69
2021/04/05 09:08:56;;;;;;;4.32;0.80;;;3.00;91.30;;;;;;5040609;28;20494;-69
2021/04/05 09:11:24;;;;;;;6.65;1.00;;;3.10;92.30;;;;;;5015458;28;20422;-68
2021/04/05 09:13:56;;;;;;;4.38;0.80;;;3.20;92.20;;;;;;5035371;28;20094;-69
2021/04/05 09:16:21;;;;;;;3.72;0.90;;;3.20;92.20;;;;;;5037413;28;20029;-69
2021/04/05 09:19:13;;;;;;;8.32;1.20;;;3.40;90.50;;;;;;5025510;28;20043;-71
2021/04/05 09:21:52;;;;;;;6.50;1.20;;;3.50;91.20;;;;;;5041445;28;20040;-71
2021/04/05 09:24:55;;;;;;;8.52;1.00;;;3.60;87.90;;;;;;5040027;28;20021;-70
2021/04/05 09:27:39;;;;;;;12.18;1.55;;;3.60;88.70;;;;;;5038866;28;21017;-71
2021/04/05 09:30:43;;;;;;;12.43;1.10;;;3.60;87.30;;;;;;5020465;28;20075;-69
2021/04/05 09:33:24;;;;;;;7.18;1.40;;;3.50;90.00;;;;;;5034672;28;20112;-73
2021/04/05 09:36:11;;;;;;;19.25;1.98;;;3.50;86.40;;;;;;5040700;28;20045;-74
2021/04/05 09:39:07;;;;;;;8.55;1.75;;;3.50;87.10;;;;;;5035086;28;20111;-73
2021/04/05 09:42:05;;;;;;;9.00;1.30;;;3.50;86.60;;;;;;5047586;28;20025;-71
2021/04/05 09:44:52;;;;;;;6.93;1.45;;;3.60;86.90;;;;;;5040853;28;20022;-71
2021/04/05 09:47:43;;;;;;;12.13;1.70;;;3.70;84.70;;;;;;5042042;28;20107;-73
2021/04/05 09:50:27;;;;;;;11.57;2.70;;;3.80;85.50;;;;;;5041040;28;20029;-72
2021/04/05 09:53:15;;;;;;;7.80;1.67;;;3.90;85.00;;;;;;5033812;28;20027;-72
2021/04/05 09:55:46;;;;;;;13.43;1.52;;;4.00;84.80;;;;;;5032534;28;20033;-72
2021/04/05 09:58:25;;;;;;;10.05;2.10;;;4.10;83.60;;;;;;5035960;28;20127;-71
2021/04/05 10:01:01;;;;;;;14.40;2.30;;;4.00;80.30;;;;;;5035950;28;20029;-71
2021/04/05 10:03:28;;;;;;;10.35;1.38;;;4.00;79.40;;;;;;5036370;28;20535;-71
2021/04/05 10:05:54;;;;;;;10.40;1.70;;;4.00;78.40;;;;;;5036031;28;20033;-73
2021/04/05 10:08:25;;;;;;;8.35;1.50;;;4.00;75.70;;;;;;5033729;28;20029;-72
2021/04/05 10:10:53;;;;;;;4.72;1.38;;;4.00;72.90;;;;;;5033677;28;20392;-72
2021/04/05 10:13:27;;;;;;;7.35;0.95;;;4.00;69.60;;;;;;5036698;28;20041;-71
2021/04/05 10:15:56;;;;;;;8.35;1.65;;;3.90;70.90;;;;;;5036757;28;20026;-72
2021/04/05 10:18:23;;;;;;;7.55;1.20;;;4.00;68.30;;;;;;5035200;28;20029;-71
2021/04/05 10:20:52;;;;;;;4.45;1.27;;;4.20;66.30;;;;;;5034782;28;20090;-72
2021/04/05 10:23:24;;;;;;;10.63;2.05;;;4.10;67.20;;;;;;5018238;28;20043;-72
2021/04/05 10:25:59;;;;;;;5.45;1.30;;;4.20;64.90;;;;;;5032776;28;20136;-71
2021/04/05 10:28:33;;;;;;;5.15;1.13;;;4.10;65.80;;;;;;5035911;28;20091;-71
2021/04/05 10:31:03;;;;;;;5.88;1.20;;;4.20;61.00;;;;;;5039895;28;20082;-71
2021/04/05 10:34:03;;;;;;;7.35;1.00;;;4.20;63.00;;;;;;5038782;28;20472;-72
2021/04/05 10:36:35;;;;;;;7.45;1.10;;;4.30;61.10;;;;;;5027069;28;20025;-71
2021/04/05 10:39:00;;;;;;;8.88;1.38;;;4.30;63.20;;;;;;5034102;28;20037;-71
2021/04/05 10:41:27;;;;;;;7.10;1.23;;;4.20;65.10;;;;;;5038406;28;20034;-72
2021/04/05 10:44:05;;;;;;;9.63;1.27;;;4.30;60.00;;;;;;5040373;28;20056;-71
2021/04/05 10:46:38;;;;;;;16.10;3.00;;;4.30;61.20;;;;;;5036680;28;20027;-72
2021/04/05 10:49:12;;;;;;;11.90;1.90;;;4.40;63.90;;;;;;5033424;28;20040;-72
2021/04/05 10:51:51;;;;;;;9.38;1.60;;;4.50;68.90;;;;;;5017328;28;20116;-73
2021/04/05 10:54:33;;;;;;;9.20;1.42;;;4.70;64.40;;;;;;5032793;28;20021;-72
2021/04/05 10:57:28;;;;;;;9.00;1.42;;;4.80;67.10;;;;;;5035360;28;20025;-72
2021/04/05 10:59:57;;;;;;;8.02;1.42;;;4.90;65.60;;;;;;5032141;28;20025;-72
2021/04/05 11:02:32;;;;;;;11.15;2.03;;;5.00;58.80;;;;;;5036054;28;20108;-72
2021/04/05 11:05:03;;;;;;;8.93;0.93;;;5.00;62.80;;;;;;5043916;28;20022;-71
2021/04/05 11:07:30;;;;;;;4.10;1.00;;;4.90;57.50;;;;;;5040999;28;20033;-71
2021/04/05 11:10:00;;;;;;;7.03;0.90;;;4.90;59.00;;;;;;5036636;28;20052;-73
2021/04/05 11:12:42;;;;;;;6.85;0.90;;;4.80;61.00;;;;;;5020953;28;20029;-73
2021/04/05 11:15:11;;;;;;;7.25;1.00;;;5.10;58.00;;;;;;5037675;28;20041;-72
2021/04/05 11:17:45;;;;;;;7.35;1.10;;;5.20;60.20;;;;;;5038299;28;20033;-73
2021/04/05 11:20:12;;;;;;;5.30;1.10;;;5.80;61.30;;;;;;5027047;28;20064;-71
2021/04/05 11:22:40;;;;;;;7.50;1.13;;;6.60;63.80;;;;;;5031817;28;20098;-72
2021/04/05 11:25:21;;;;;;;6.82;1.20;;;7.30;64.10;;;;;;5036277;28;20061;-71
2021/04/05 11:27:52;;;;;;;5.55;0.98;;;7.70;60.10;;;;;;5034125;28;20100;-71
2021/04/05 11:30:27;;;;;;;10.30;1.50;;;7.60;58.10;;;;;;5015487;28;20030;-71
2021/04/05 11:32:53;;;;;;;7.10;1.35;;;7.00;52.80;;;;;;5033560;28;20483;-72
2021/04/05 11:35:21;;;;;;;8.77;1.20;;;6.40;58.40;;;;;;5034832;28;20037;-71
2021/04/05 11:37:51;;;;;;;7.40;1.17;;;6.10;62.50;;;;;;5038416;28;20036;-71
2021/04/05 11:40:19;;;;;;;11.15;1.38;;;6.10;59.90;;;;;;5037600;28;20463;-71
2021/04/05 11:42:49;;;;;;;8.50;1.23;;;6.30;62.90;;;;;;5021618;28;20036;-71
2021/04/05 11:45:27;;;;;;;5.80;1.00;;;6.80;56.90;;;;;;5043503;28;20025;-72
2021/04/05 11:47:54;;;;;;;2.42;0.60;;;6.60;58.20;;;;;;5030442;28;20033;-71
2021/04/05 11:50:23;;;;;;;3.13;0.80;;;6.00;58.20;;;;;;5031013;28;20679;-71
2021/04/05 11:52:56;;;;;;;5.65;0.57;;;5.70;61.40;;;;;;5031129;28;20856;-71
2021/04/05 11:55:29;;;;;;;5.35;1.05;;;5.50;64.20;;;;;;5033318;28;20021;-70
2021/04/05 11:58:21;;;;;;;6.40;0.95;;;5.60;62.10;;;;;;5027596;28;20112;-70
2021/04/05 12:00:57;;;;;;;6.05;1.05;;;6.00;61.50;;;;;;5015570;28;20080;-72
2021/04/05 12:03:57;;;;;;;3.45;1.05;;;6.20;62.60;;;;;;5001934;28;20125;-72
2021/04/05 12:06:33;;;;;;;6.13;1.98;;;6.40;63.40;;;;;;5038805;28;20030;-72
2021/04/05 12:09:21;;;;;;;7.82;1.33;;;6.50;63.20;;;;;;5021958;28;20021;-72
2021/04/05 12:11:51;;;;;;;8.52;1.33;;;6.20;63.70;;;;;;5036241;28;20048;-71
2021/04/05 12:14:22;;;;;;;13.98;1.95;;;5.70;75.00;;;;;;5012757;28;20028;-73
2021/04/05 12:16:53;;;;;;;7.93;1.40;;;5.30;78.30;;;;;;5033875;28;20505;-72
2021/04/05 12:19:27;;;;;;;4.82;1.00;;;4.80;77.00;;;;;;5020188;28;20044;-73
2021/04/05 12:21:53;;;;;;;3.58;1.15;;;4.50;76.30;;;;;;5013788;28;20026;-71
2021/04/05 12:24:32;;;;;;;6.45;1.55;;;4.50;76.20;;;;;;5042558;28;21001;-70
2021/04/05 12:27:01;;;;;;;6.53;1.25;;;4.70;78.00;;;;;;5031962;28;20030;-71
2021/04/05 12:29:28;;;;;;;9.55;1.20;;;5.10;80.10;;;;;;5033349;28;20033;-75
2021/04/05 12:31:56;;;;;;;5.25;0.80;;;5.60;72.90;;;;;;5033717;28;20026;-70
2021/04/05 12:34:31;;;;;;;4.78;1.02;;;5.50;71.10;;;;;;5034399;28;20030;-73
2021/04/05 12:37:00;;;;;;;6.38;1.00;;;5.50;71.90;;;;;;5035088;28;20026;-71
2021/04/05 12:39:31;;;;;;;9.27;2.17;;;5.60;68.70;;;;;;5024117;28;20037;-71
2021/04/05 12:41:58;;;;;;;;;;;5.70;69.20;;;;;;5024840;28;20029;-70
2021/04/05 12:44:26;;;;;;;4.75;0.73;;;5.70;65.20;;;;;;5038416;28;19913;-71
2021/04/05 12:46:54;;;;;;;5.50;0.70;;;5.60;67.00;;;;;;5020852;28;20029;-71
2021/04/05 12:49:23;;;;;;;3.80;0.80;;;5.60;66.40;;;;;;5035829;28;20042;-71
2021/04/05 12:51:59;;;;;;;5.63;1.30;;;5.80;67.20;;;;;;5037458;28;20471;-70
2021/04/05 12:54:28;;;;;;;4.82;0.60;;;6.10;70.60;;;;;;5038226;28;20150;-69
2021/04/05 12:56:58;;;;;;;6.38;1.23;;;6.30;63.10;;;;;;5036418;28;20029;-69
2021/04/05 12:59:26;;;;;;;7.72;1.52;;;6.30;61.00;;;;;;5044835;28;20031;-70
2021/04/05 13:01:54;;;;;;;5.97;1.40;;;6.10;63.40;;;;;;5036113;28;20040;-69
2021/04/05 13:04:22;;;;;;;6.10;1.05;;;5.90;64.30;;;;;;5041187;28;20037;-69
2021/04/05 13:07:13;;;;;;;6.00;1.45;;;5.70;66.70;;;;;;5042106;28;20505;-70
2021/04/05 13:09:53;;;;;;;8.75;2.15;;;5.70;65.90;;;;;;5041163;28;20060;-69
2021/04/05 13:12:52;;;;;;;7.00;0.77;;;5.50;66.30;;;;;;5040790;28;20036;-68
2021/04/05 13:18:35;;;;;;;5.45;0.80;;;4.50;82.20;;;;;;5040378;28;20033;-69
2021/04/05 13:21:04;;;;;;;4.25;1.27;;;4.00;87.20;;;;;;5039682;28;20095;-69
2021/04/05 13:23:34;;;;;;;5.25;0.93;;;3.60;89.20;;;;;;5042848;28;20079;-70
2021/04/05 13:26:05;;;;;;;3.38;0.60;;;3.40;87.90;;;;;;5034492;28;20029;-69
2021/04/05 13:28:33;;;;;;;5.80;0.73;;;3.20;88.60;;;;;;5041662;28;20101;-68
2021/04/05 13:31:02;;;;;;;4.97;0.70;;;3.20;88.30;;;;;;5045467;28;20029;-69
2021/04/05 13:33:29;;;;;;;3.10;0.90;;;3.20;84.80;;;;;;5045525;28;20021;-69
2021/04/05 13:36:08;;;;;;;7.40;0.70;;;3.20;87.60;;;;;;5040077;28;20028;-69